Time;durP1;ratioP1;P1;durP2;ratioP2;P2;SDS_P1;SDS_P2;PMS_P1;PMS_P2;Temp;Humidity;BMP_temperature;BMP_pressure;BME280_temperature;BME280_humidity;BME280_pressure;Samples;Min_cycle;Max_cycle;Signal;HPM_P1;HPM_P2
2023/10/07 00:00:59;;;;;;;13.93;3.60;;;16.80;99.90;;;;;;5103591;28;20044;-66
2023/10/07 00:03:25;;;;;;;16.35;3.28;;;16.80;99.90;;;;;;5102403;28;20484;-66
2023/10/07 00:06:00;;;;;;;10.15;3.53;;;16.80;99.90;;;;;;5103978;28;20048;-66
2023/10/07 00:08:27;;;;;;;10.03;3.90;;;16.80;99.90;;;;;;5102127;28;20046;-66
2023/10/07 00:10:58;;;;;;;13.30;4.03;;;16.80;99.90;;;;;;5102474;28;20115;-66
2023/10/07 00:13:26;;;;;;;11.65;3.55;;;16.80;99.90;;;;;;5103014;27;20077;-66
2023/10/07 00:15:53;;;;;;;16.23;4.00;;;16.80;99.90;;;;;;5103920;27;20035;-66
2023/10/07 00:18:19;;;;;;;14.50;4.00;;;16.80;99.90;;;;;;5105689;27;20051;-66
2023/10/07 00:20:54;;;;;;;12.52;4.15;;;16.80;99.90;;;;;;5105282;27;20044;-66
2023/10/07 00:23:26;;;;;;;15.48;3.88;;;16.80;99.90;;;;;;5103178;27;20039;-66
2023/10/07 00:25:54;;;;;;;12.85;3.65;;;16.80;99.90;;;;;;5107121;27;20497;-66
2023/10/07 00:28:39;;;;;;;15.60;4.20;;;16.80;99.90;;;;;;5104195;27;20539;-66
2023/10/07 00:31:22;;;;;;;15.70;3.58;;;16.90;99.90;;;;;;5104224;27;20055;-66
2023/10/07 00:34:02;;;;;;;13.65;3.22;;;16.80;99.90;;;;;;5104553;28;20123;-66
2023/10/07 00:39:01;;;;;;;13.35;4.38;;;16.80;99.90;;;;;;5104311;28;20058;-66
2023/10/07 00:41:31;;;;;;;13.35;4.47;;;16.80;99.90;;;;;;5106133;27;20044;-66
2023/10/07 00:44:07;;;;;;;10.55;2.92;;;16.80;99.90;;;;;;5104664;28;20093;-66
2023/10/07 00:46:44;;;;;;;14.13;3.00;;;16.90;99.90;;;;;;5090295;28;20051;-66
2023/10/07 00:49:20;;;;;;;10.98;2.97;;;16.90;99.90;;;;;;5137432;27;20050;-66
2023/10/07 00:51:46;;;;;;;;;;;16.90;99.90;;;;;;5107433;28;20032;-66
2023/10/07 00:57:03;;;;;;;10.45;3.08;;;16.90;99.90;;;;;;5102936;27;20031;-66
2023/10/07 00:59:29;;;;;;;;;;;16.90;99.90;;;;;;5104033;27;20123;-66
2023/10/07 01:01:57;;;;;;;;;;;16.90;99.90;;;;;;5106479;28;20353;-66
2023/10/07 01:04:24;;;;;;;19.70;4.25;;;16.90;99.90;;;;;;5103751;27;19916;-66
2023/10/07 01:06:59;;;;;;;9.07;3.28;;;16.90;99.90;;;;;;5101401;28;20058;-66
2023/10/07 01:09:26;;;;;;;16.33;3.67;;;16.90;99.90;;;;;;5102340;28;20054;-66
2023/10/07 01:11:57;;;;;;;15.20;3.47;;;17.00;99.90;;;;;;5104471;28;20035;-66
2023/10/07 01:14:27;;;;;;;12.05;3.47;;;17.00;99.90;;;;;;5102306;27;20047;-66
2023/10/07 01:16:53;;;;;;;15.13;3.50;;;17.00;99.90;;;;;;5103362;27;20140;-66
2023/10/07 01:19:27;;;;;;;12.38;4.35;;;17.00;99.90;;;;;;5105693;27;20043;-66
2023/10/07 01:21:55;;;;;;;11.48;3.92;;;17.00;99.90;;;;;;5104746;28;20031;-66
2023/10/07 01:27:16;;;;;;;14.35;3.72;;;17.00;99.90;;;;;;5103760;28;20054;-66
2023/10/07 01:29:42;;;;;;;14.05;3.42;;;17.00;99.90;;;;;;5105253;28;20042;-66
2023/10/07 01:32:16;;;;;;;11.60;3.00;;;17.00;99.90;;;;;;5105794;27;20449;-66
2023/10/07 01:34:47;;;;;;;13.50;3.08;;;17.00;99.90;;;;;;5106804;27;20031;-66
2023/10/07 01:37:15;;;;;;;17.02;4.38;;;17.00;99.90;;;;;;5099245;28;20039;-66
2023/10/07 01:39:43;;;;;;;12.27;3.22;;;17.00;99.90;;;;;;5102058;28;20028;-66
2023/10/07 01:42:14;;;;;;;13.15;3.88;;;17.00;99.90;;;;;;5100357;28;20036;-66
2023/10/07 01:44:41;;;;;;;14.93;4.07;;;16.90;99.90;;;;;;5102164;28;20028;-66
2023/10/07 01:47:23;;;;;;;15.55;3.97;;;17.00;99.90;;;;;;5102955;28;20043;-66
2023/10/07 01:49:56;;;;;;;16.60;4.32;;;17.00;99.90;;;;;;5131905;27;20485;-66
2023/10/07 01:52:26;;;;;;;16.70;4.30;;;17.00;99.90;;;;;;5102960;28;20041;-66
2023/10/07 01:54:52;;;;;;;14.00;3.70;;;17.00;99.90;;;;;;5102721;27;20051;-66
2023/10/07 01:57:19;;;;;;;17.48;4.75;;;17.00;99.90;;;;;;5103617;28;20043;-66
2023/10/07 01:59:45;;;;;;;13.82;3.58;;;17.10;99.90;;;;;;5104091;28;20108;-66
2023/10/07 02:02:14;;;;;;;13.73;4.55;;;17.10;99.90;;;;;;5101677;27;20115;-66
2023/10/07 02:04:40;;;;;;;10.38;3.47;;;17.10;99.90;;;;;;5102047;28;20113;-66
2023/10/07 02:07:08;;;;;;;9.63;3.55;;;17.10;99.90;;;;;;5104967;28;20047;-66
2023/10/07 02:09:40;;;;;;;13.35;3.53;;;17.10;99.90;;;;;;5105888;28;20118;-66
2023/10/07 02:12:09;;;;;;;8.88;2.92;;;17.20;99.90;;;;;;5101135;28;20036;-66
2023/10/07 02:14:36;;;;;;;16.60;4.13;;;17.10;99.90;;;;;;5135549;27;20114;-66
2023/10/07 02:17:03;;;;;;;15.02;4.60;;;17.10;99.90;;;;;;5101471;28;20478;-67
2023/10/07 02:19:29;;;;;;;12.00;2.65;;;17.10;99.90;;;;;;5100416;28;20045;-66
2023/10/07 02:22:08;;;;;;;11.05;4.13;;;17.10;99.90;;;;;;5102136;28;20039;-66
2023/10/07 02:24:41;;;;;;;12.85;3.55;;;17.20;99.90;;;;;;5105416;28;20385;-66
2023/10/07 02:27:19;;;;;;;13.82;3.65;;;17.10;99.90;;;;;;5101960;28;20073;-66
2023/10/07 02:29:56;;;;;;;13.40;3.95;;;17.10;99.90;;;;;;5134573;27;20390;-66
2023/10/07 02:32:22;;;;;;;14.70;3.47;;;17.10;99.90;;;;;;5109150;28;20084;-66
2023/10/07 02:34:51;;;;;;;11.27;3.15;;;17.10;99.90;;;;;;5103870;28;20202;-66
2023/10/07 02:37:25;;;;;;;13.73;3.72;;;17.10;99.90;;;;;;5103980;28;20070;-66
2023/10/07 02:39:56;;;;;;;10.93;3.10;;;17.10;99.90;;;;;;5102053;28;20050;-66
2023/10/07 02:42:24;;;;;;;12.20;3.30;;;17.20;99.90;;;;;;5103833;28;20044;-66
2023/10/07 02:45:00;;;;;;;12.82;3.67;;;17.10;99.90;;;;;;5103877;28;20028;-66
2023/10/07 02:47:32;;;;;;;13.30;4.50;;;17.10;99.90;;;;;;5103302;28;20375;-66
2023/10/07 02:50:01;;;;;;;13.57;3.40;;;17.20;99.90;;;;;;5104915;28;20061;-66
2023/10/07 02:52:37;;;;;;;13.88;3.28;;;17.10;99.90;;;;;;5103173;28;20046;-66
2023/10/07 02:55:47;;;;;;;10.13;3.75;;;17.20;99.90;;;;;;5103376;28;21532;-66
2023/10/07 02:57:55;;;;;;;14.60;4.45;;;17.20;99.90;;;;;;5090562;28;20043;-66
2023/10/07 03:00:49;;;;;;;11.90;3.13;;;17.10;99.90;;;;;;5102333;28;20138;-66
2023/10/07 03:05:44;;;;;;;15.98;4.00;;;17.20;99.90;;;;;;5103098;28;20499;-66
2023/10/07 03:08:19;;;;;;;8.07;3.10;;;17.20;99.90;;;;;;5102918;28;20102;-66
2023/10/07 03:11:03;;;;;;;13.63;3.20;;;17.20;99.90;;;;;;5100106;28;20145;-66
2023/10/07 03:13:30;;;;;;;10.95;2.63;;;17.20;99.90;;;;;;5102257;28;20067;-66
2023/10/07 03:18:40;;;;;;;7.30;2.42;;;17.20;99.90;;;;;;5108495;27;20432;-66
2023/10/07 03:21:06;;;;;;;9.88;2.75;;;17.20;99.90;;;;;;5110124;27;20050;-66
2023/10/07 03:23:35;;;;;;;13.48;3.55;;;17.20;99.90;;;;;;5104546;27;20050;-66
2023/10/07 03:28:36;;;;;;;7.97;2.70;;;17.20;99.90;;;;;;5103165;27;20050;-66
2023/10/07 03:31:09;;;;;;;14.95;3.00;;;17.20;99.90;;;;;;5107327;27;20043;-66
2023/10/07 03:33:45;;;;;;;10.10;2.42;;;17.20;99.90;;;;;;5107298;28;20084;-66
2023/10/07 03:36:30;;;;;;;12.90;2.92;;;17.20;99.90;;;;;;5107220;27;20039;-66
2023/10/07 03:41:41;;;;;;;12.25;3.67;;;17.20;99.90;;;;;;5139304;27;20423;-66
2023/10/07 03:44:07;;;;;;;13.90;3.88;;;17.20;99.90;;;;;;5105456;27;20043;-66
2023/10/07 03:46:35;;;;;;;9.90;3.90;;;17.20;99.90;;;;;;5108034;27;20072;-66
2023/10/07 03:49:01;;;;;;;10.63;3.38;;;17.30;99.90;;;;;;5106497;28;20071;-66
2023/10/07 03:51:30;;;;;;;10.48;2.55;;;17.20;99.90;;;;;;5136382;27;20142;-66
2023/10/07 03:54:09;;;;;;;9.18;2.95;;;17.30;99.90;;;;;;5087990;28;20036;-66
2023/10/07 03:56:36;;;;;;;9.60;3.25;;;17.20;99.90;;;;;;5103601;27;20108;-66
2023/10/07 03:59:04;;;;;;;11.93;3.47;;;17.20;99.90;;;;;;5103910;28;20086;-66
2023/10/07 04:01:32;;;;;;;11.48;2.88;;;17.20;99.90;;;;;;5106986;28;20047;-66
2023/10/07 04:03:59;;;;;;;10.73;3.15;;;17.30;99.90;;;;;;5109258;27;20526;-66
2023/10/07 04:06:32;;;;;;;11.95;2.88;;;17.30;99.90;;;;;;5104906;27;20044;-66
2023/10/07 04:09:05;;;;;;;11.65;3.92;;;17.30;99.90;;;;;;5101655;28;20098;-66
2023/10/07 04:11:33;;;;;;;10.85;3.13;;;17.20;99.90;;;;;;5105332;28;20483;-66
2023/10/07 04:14:05;;;;;;;11.43;3.22;;;17.30;99.90;;;;;;5137432;27;20032;-66
2023/10/07 04:16:33;;;;;;;7.93;2.67;;;17.20;99.90;;;;;;5136186;27;20095;-66
2023/10/07 04:21:44;;;;;;;14.10;3.22;;;17.30;99.90;;;;;;5105480;28;20418;-66
2023/10/07 04:24:10;;;;;;;9.20;2.70;;;17.30;99.90;;;;;;5105737;28;20044;-66
2023/10/07 04:26:39;;;;;;;11.07;3.40;;;17.30;99.90;;;;;;5103706;27;20039;-66
2023/10/07 04:29:14;;;;;;;12.20;3.40;;;17.30;99.90;;;;;;5099651;27;20040;-66
2023/10/07 04:32:10;;;;;;;11.48;3.75;;;17.20;99.90;;;;;;5106270;27;20030;-66
2023/10/07 04:34:48;;;;;;;9.57;3.22;;;17.30;99.90;;;;;;5116980;27;20084;-66
2023/10/07 04:37:16;;;;;;;12.90;3.03;;;17.20;99.90;;;;;;5106088;27;20043;-66
2023/10/07 04:42:20;;;;;;;11.85;3.75;;;17.30;99.90;;;;;;5103856;28;20573;-66
2023/10/07 04:52:33;;;;;;;14.38;3.50;;;17.30;99.90;;;;;;5105003;27;20043;-66
2023/10/07 04:55:00;;;;;;;15.93;4.20;;;17.20;99.90;;;;;;5133576;27;20042;-66
2023/10/07 04:57:45;;;;;;;8.70;2.88;;;17.30;99.90;;;;;;5105395;27;20036;-66
2023/10/07 05:02:57;;;;;;;10.82;2.80;;;17.20;99.90;;;;;;5102348;27;20051;-66
2023/10/07 05:05:30;;;;;;;9.82;3.67;;;17.30;99.90;;;;;;5109135;28;20039;-66
2023/10/07 05:08:11;;;;;;;13.57;3.75;;;17.30;99.90;;;;;;5103909;28;20558;-66
2023/10/07 05:10:43;;;;;;;11.02;3.63;;;17.20;99.90;;;;;;5104089;27;20081;-66
2023/10/07 05:13:10;;;;;;;12.75;4.07;;;17.20;99.90;;;;;;5135088;27;20035;-66
2023/10/07 05:15:38;;;;;;;15.40;3.78;;;17.20;99.90;;;;;;5104362;28;20092;-66
2023/10/07 05:18:05;;;;;;;15.73;3.45;;;17.20;99.90;;;;;;5105556;27;20409;-66
2023/10/07 05:20:36;;;;;;;13.50;3.60;;;17.20;99.90;;;;;;5106961;28;20073;-66
2023/10/07 05:23:02;;;;;;;11.40;2.65;;;17.20;99.90;;;;;;5103883;27;20371;-66
2023/10/07 05:25:27;;;;;;;10.65;3.03;;;17.20;99.90;;;;;;5101307;28;20051;-66
2023/10/07 05:27:54;;;;;;;13.10;3.45;;;17.20;99.90;;;;;;5103208;27;20157;-66
2023/10/07 05:30:21;;;;;;;10.07;2.88;;;17.20;99.90;;;;;;5104086;28;20055;-66
2023/10/07 05:32:47;;;;;;;11.60;3.10;;;17.20;99.90;;;;;;5102126;28;20043;-66
2023/10/07 05:35:18;;;;;;;13.38;4.25;;;17.20;99.90;;;;;;5089253;28;20032;-66
2023/10/07 05:37:45;;;;;;;13.10;2.95;;;17.20;99.90;;;;;;5104609;28;20134;-66
2023/10/07 05:40:16;;;;;;;12.00;3.35;;;17.20;99.90;;;;;;5103400;28;20095;-66
2023/10/07 05:42:42;;;;;;;12.90;4.15;;;17.10;99.90;;;;;;5101483;28;20039;-66
2023/10/07 05:45:08;;;;;;;9.43;2.78;;;17.20;99.90;;;;;;5132824;27;20512;-66
2023/10/07 05:47:34;;;;;;;13.35;3.85;;;17.10;99.90;;;;;;5101914;27;20050;-66
2023/10/07 05:50:00;;;;;;;15.48;3.53;;;17.10;99.90;;;;;;5099795;28;20039;-66
2023/10/07 05:52:28;;;;;;;13.00;3.67;;;17.10;99.90;;;;;;5099152;28;20468;-66
2023/10/07 05:54:56;;;;;;;12.95;3.70;;;17.10;99.90;;;;;;5115727;27;20043;-66
2023/10/07 05:57:25;;;;;;;12.43;3.50;;;17.10;99.90;;;;;;5105160;28;20039;-66
2023/10/07 05:59:51;;;;;;;12.88;3.53;;;17.10;99.90;;;;;;5101965;28;20049;-66
2023/10/07 06:02:17;;;;;;;9.25;3.45;;;17.10;99.90;;;;;;5100227;28;20096;-66
2023/10/07 06:04:44;;;;;;;10.82;3.03;;;17.10;99.90;;;;;;5101345;28;20067;-66
2023/10/07 06:07:13;;;;;;;10.93;2.92;;;17.10;99.90;;;;;;5129902;27;20050;-66
2023/10/07 06:09:41;;;;;;;12.07;3.10;;;17.10;99.90;;;;;;5085026;28;20040;-66
2023/10/07 06:12:09;;;;;;;14.00;3.15;;;17.10;99.90;;;;;;5099309;28;20116;-66
2023/10/07 06:14:35;;;;;;;13.10;4.43;;;17.10;99.90;;;;;;5098510;28;21573;-66
2023/10/07 06:17:01;;;;;;;11.32;3.15;;;17.10;99.90;;;;;;5104514;28;20062;-66
2023/10/07 06:19:26;;;;;;;6.93;2.80;;;17.10;99.90;;;;;;5100820;28;20052;-66
2023/10/07 06:21:52;;;;;;;10.00;3.25;;;17.10;99.90;;;;;;5102030;28;20482;-66
2023/10/07 06:24:23;;;;;;;19.65;4.35;;;17.10;99.90;;;;;;5083045;28;20051;-66
2023/10/07 06:26:50;;;;;;;14.75;3.22;;;17.10;99.90;;;;;;5099634;28;20051;-66
2023/10/07 06:29:19;;;;;;;11.98;3.67;;;17.10;99.90;;;;;;5099471;28;20079;-66
2023/10/07 06:32:43;;;;;;;13.75;3.75;;;17.10;99.90;;;;;;5098906;28;20427;-66
2023/10/07 06:34:41;;;;;;;13.70;4.10;;;17.10;99.90;;;;;;5097913;28;20122;-66
2023/10/07 06:37:06;;;;;;;12.45;4.07;;;17.10;99.90;;;;;;5103132;28;20047;-66
2023/10/07 06:39:32;;;;;;;10.93;3.28;;;17.10;99.90;;;;;;5104075;28;20031;-66
2023/10/07 06:41:58;;;;;;;13.48;5.32;;;17.10;99.90;;;;;;5130656;27;20126;-66
2023/10/07 06:44:24;;;;;;;13.85;3.72;;;17.30;99.90;;;;;;5133889;27;20040;-66
2023/10/07 06:46:56;;;;;;;13.15;3.08;;;17.10;99.90;;;;;;5102604;28;20056;-66
2023/10/07 06:49:22;;;;;;;16.50;3.60;;;17.20;99.90;;;;;;5100081;28;20040;-66
2023/10/07 06:51:53;;;;;;;16.52;4.22;;;17.20;99.90;;;;;;5133904;27;20131;-66
2023/10/07 06:54:25;;;;;;;17.52;4.20;;;17.20;99.90;;;;;;5106824;27;20071;-66
2023/10/07 06:56:51;;;;;;;10.80;2.85;;;17.30;99.90;;;;;;5106103;28;20050;-66
2023/10/07 06:59:17;;;;;;;12.52;3.30;;;17.30;99.90;;;;;;5101974;27;20035;-66
2023/10/07 07:04:11;;;;;;;12.02;3.03;;;17.30;99.90;;;;;;5107180;27;20077;-66
2023/10/07 07:06:44;;;;;;;9.75;3.08;;;17.40;99.90;;;;;;5103405;28;20040;-66
2023/10/07 07:12:03;;;;;;;10.95;2.92;;;17.30;99.90;;;;;;5135161;27;20051;-66
2023/10/07 07:14:30;;;;;;;10.88;3.03;;;17.40;99.90;;;;;;5102886;28;20039;-66
2023/10/07 07:17:29;;;;;;;16.35;4.97;;;17.40;99.90;;;;;;5087935;28;20068;-66
2023/10/07 07:20:15;;;;;;;12.80;3.42;;;17.40;99.90;;;;;;5104235;28;20063;-66
2023/10/07 07:22:33;;;;;;;11.23;3.20;;;17.60;99.90;;;;;;5105855;27;20043;-67
2023/10/07 07:25:06;;;;;;;9.32;3.25;;;17.60;99.90;;;;;;5105558;28;20399;-66
2023/10/07 07:27:34;;;;;;;13.00;3.10;;;17.70;99.90;;;;;;5104638;28;20035;-66
2023/10/07 07:30:09;;;;;;;13.02;4.18;;;17.70;99.90;;;;;;5102281;28;20075;-66
2023/10/07 07:32:37;;;;;;;10.00;3.70;;;17.70;99.90;;;;;;5105077;27;20449;-66
2023/10/07 07:35:03;;;;;;;10.70;3.15;;;17.80;99.90;;;;;;5107397;27;20043;-66
2023/10/07 07:37:32;;;;;;;13.55;3.80;;;17.80;99.90;;;;;;5106745;27;20435;-66
2023/10/07 07:42:55;;;;;;;9.13;2.85;;;17.80;99.90;;;;;;5133997;27;20405;-66
2023/10/07 07:45:26;;;;;;;11.45;4.40;;;17.80;99.90;;;;;;5089908;27;20032;-66
2023/10/07 07:47:55;;;;;;;9.68;3.13;;;17.90;99.90;;;;;;5103046;28;20122;-66
2023/10/07 07:50:21;;;;;;;13.00;2.60;;;18.00;99.90;;;;;;5136337;27;20044;-66
2023/10/07 07:52:50;;;;;;;12.02;4.07;;;18.00;99.90;;;;;;5103726;27;20043;-66
2023/10/07 07:55:16;;;;;;;9.05;3.00;;;18.00;99.90;;;;;;5103183;28;20040;-66
2023/10/07 07:57:44;;;;;;;6.93;3.15;;;18.00;99.90;;;;;;5102528;28;20068;-66
2023/10/07 08:00:11;;;;;;;11.88;3.08;;;18.10;99.90;;;;;;5101319;28;20055;-66
2023/10/07 08:02:37;;;;;;;13.15;2.85;;;18.10;99.90;;;;;;5103519;28;20043;-67
2023/10/07 08:05:02;;;;;;;12.68;3.28;;;18.10;99.90;;;;;;5136897;27;20043;-66
2023/10/07 08:07:29;;;;;;;8.48;3.40;;;18.30;99.90;;;;;;5105703;27;20035;-66
2023/10/07 08:09:58;;;;;;;9.85;3.05;;;18.40;99.90;;;;;;5102784;28;20410;-66
2023/10/07 08:12:28;;;;;;;10.30;3.60;;;18.40;99.90;;;;;;5104403;28;20970;-66
2023/10/07 08:15:15;;;;;;;9.48;3.28;;;18.40;99.90;;;;;;5105984;27;20040;-66
2023/10/07 08:17:44;;;;;;;18.65;4.78;;;18.40;99.90;;;;;;5102303;28;20138;-66
2023/10/07 08:20:11;;;;;;;11.65;3.65;;;18.40;99.90;;;;;;5136221;27;20035;-66
2023/10/07 08:22:45;;;;;;;13.63;3.35;;;18.30;99.90;;;;;;5104352;28;20456;-66
2023/10/07 08:25:35;;;;;;;9.25;3.28;;;18.30;99.90;;;;;;5107566;27;20063;-66
2023/10/07 08:28:18;;;;;;;12.57;3.90;;;18.30;99.90;;;;;;5102909;27;20046;-66
2023/10/07 08:30:46;;;;;;;7.65;3.20;;;18.30;99.90;;;;;;5101888;28;20549;-66
2023/10/07 08:33:15;;;;;;;14.52;4.45;;;18.20;99.90;;;;;;5106959;27;20047;-66
2023/10/07 08:35:47;;;;;;;13.02;4.10;;;18.30;99.90;;;;;;5102943;28;20130;-67
2023/10/07 08:38:29;;;;;;;14.18;4.43;;;18.20;99.90;;;;;;5107615;28;20036;-67
2023/10/07 08:41:07;;;;;;;13.63;3.85;;;18.20;99.90;;;;;;5102700;28;20043;-67
2023/10/07 08:43:45;;;;;;;10.93;3.05;;;18.20;99.90;;;;;;5100656;27;20612;-67
2023/10/07 08:46:19;;;;;;;8.35;3.28;;;18.20;99.90;;;;;;5103059;28;20051;-66
2023/10/07 08:49:05;;;;;;;8.88;3.63;;;18.20;99.90;;;;;;5104323;28;20051;-66
2023/10/07 08:51:39;;;;;;;10.82;3.63;;;18.20;99.90;;;;;;5133959;27;20048;-67
2023/10/07 08:54:09;;;;;;;8.90;3.33;;;18.20;99.90;;;;;;5103448;27;20044;-66
2023/10/07 08:56:38;;;;;;;19.20;4.40;;;18.20;99.90;;;;;;5104634;27;20054;-66
2023/10/07 08:59:07;;;;;;;10.90;3.20;;;18.20;99.90;;;;;;5100431;27;20044;-66
2023/10/07 09:01:34;;;;;;;13.07;3.53;;;18.20;99.90;;;;;;5103035;27;20063;-66
2023/10/07 09:04:03;;;;;;;14.88;3.97;;;18.20;99.90;;;;;;5137585;27;20129;-66
2023/10/07 09:06:32;;;;;;;11.80;3.13;;;18.30;99.90;;;;;;5133999;27;20043;-66
2023/10/07 09:09:06;;;;;;;14.07;4.10;;;18.30;99.90;;;;;;5100443;28;20055;-66
2023/10/07 09:11:36;;;;;;;11.10;2.97;;;18.40;99.90;;;;;;5105104;27;20047;-66
2023/10/07 09:14:17;;;;;;;11.65;3.30;;;18.40;99.90;;;;;;5099592;28;20103;-66
2023/10/07 09:16:43;;;;;;;9.10;3.75;;;18.50;99.90;;;;;;5098457;28;20436;-66
2023/10/07 09:19:13;;;;;;;18.08;3.92;;;18.50;99.90;;;;;;5102828;28;20055;-66
2023/10/07 09:21:39;;;;;;;11.85;3.13;;;18.60;99.90;;;;;;5106467;28;20078;-66
2023/10/07 09:24:13;;;;;;;13.50;3.80;;;18.60;99.90;;;;;;5100606;28;20093;-66
2023/10/07 09:26:48;;;;;;;16.52;3.25;;;18.70;99.90;;;;;;5101668;27;20116;-66
2023/10/07 09:29:15;;;;;;;13.10;4.10;;;18.80;99.90;;;;;;5106420;27;20560;-66
2023/10/07 09:31:42;;;;;;;8.20;3.15;;;18.90;99.90;;;;;;5101887;28;20047;-66
2023/10/07 09:34:29;;;;;;;11.02;3.50;;;18.90;99.90;;;;;;5099853;28;20043;-66
2023/10/07 09:36:57;;;;;;;13.25;3.03;;;18.90;99.90;;;;;;5115763;27;20047;-67
2023/10/07 09:39:34;;;;;;;13.57;3.38;;;18.90;99.90;;;;;;5102453;28;20040;-67
2023/10/07 09:42:04;;;;;;;9.77;3.38;;;18.90;99.90;;;;;;5105039;28;20126;-66
2023/10/07 09:44:31;;;;;;;12.18;3.65;;;18.90;99.90;;;;;;5104164;28;20032;-66
2023/10/07 09:47:03;;;;;;;11.48;3.85;;;18.90;99.90;;;;;;5100273;27;20108;-67
2023/10/07 09:49:30;;;;;;;12.05;3.38;;;19.00;99.90;;;;;;5101625;28;20522;-67
2023/10/07 09:52:16;;;;;;;11.25;2.75;;;18.90;99.90;;;;;;5103449;28;20410;-67
2023/10/07 09:55:21;;;;;;;9.93;3.45;;;19.00;99.90;;;;;;5104185;28;20036;-66
2023/10/07 09:58:00;;;;;;;11.50;3.33;;;18.90;99.90;;;;;;5105604;27;20043;-66
2023/10/07 10:03:04;;;;;;;10.55;2.90;;;19.00;99.90;;;;;;5103066;28;20051;-66
2023/10/07 10:05:47;;;;;;;12.65;3.20;;;19.40;99.90;;;;;;5088086;28;20042;-67
2023/10/07 10:08:27;;;;;;;8.45;3.97;;;19.10;99.90;;;;;;5103636;28;20497;-66
2023/10/07 10:10:57;;;;;;;12.43;3.50;;;19.10;99.90;;;;;;5131062;27;20050;-66
2023/10/07 10:13:29;;;;;;;11.50;3.40;;;19.00;99.90;;;;;;5102543;28;20489;-67
2023/10/07 10:16:00;;;;;;;13.25;3.65;;;19.00;99.90;;;;;;5084257;28;20035;-66
2023/10/07 10:18:38;;;;;;;8.02;3.30;;;19.00;99.90;;;;;;5083889;28;20046;-66
2023/10/07 10:21:05;;;;;;;11.07;3.40;;;19.00;99.90;;;;;;5101880;28;20047;-66
2023/10/07 10:23:34;;;;;;;18.90;4.40;;;19.10;99.90;;;;;;5100751;28;20047;-66
2023/10/07 10:26:14;;;;;;;11.35;3.13;;;19.10;99.90;;;;;;5102906;28;20043;-66
2023/10/07 10:28:52;;;;;;;9.93;3.40;;;19.10;99.90;;;;;;5105484;28;20481;-67
2023/10/07 10:31:21;;;;;;;8.77;3.72;;;19.20;99.90;;;;;;5108552;27;20485;-67
2023/10/07 10:33:49;;;;;;;12.57;3.75;;;19.30;99.90;;;;;;5105434;27;20027;-67
2023/10/07 10:36:18;;;;;;;12.48;3.53;;;19.20;99.90;;;;;;5105590;27;20039;-66
2023/10/07 10:38:47;;;;;;;12.38;3.45;;;19.30;99.90;;;;;;5102849;27;20084;-66
2023/10/07 10:41:13;;;;;;;11.50;3.97;;;19.40;99.90;;;;;;5106915;27;20409;-67
2023/10/07 10:43:39;;;;;;;13.68;3.08;;;19.40;99.90;;;;;;5136879;27;20044;-67
2023/10/07 10:46:05;;;;;;;11.73;3.80;;;19.50;99.90;;;;;;5105783;27;21536;-67
2023/10/07 10:48:32;;;;;;;9.00;3.15;;;19.50;99.90;;;;;;5106353;27;20039;-67
2023/10/07 10:50:58;;;;;;;14.77;3.75;;;19.60;99.90;;;;;;5135966;27;20165;-67
2023/10/07 10:53:24;;;;;;;10.57;3.60;;;19.60;99.90;;;;;;5102713;28;20500;-67
2023/10/07 10:55:54;;;;;;;12.68;3.45;;;19.70;99.90;;;;;;5107531;28;20048;-66
2023/10/07 10:58:19;;;;;;;6.32;3.20;;;19.80;99.90;;;;;;5104069;27;20043;-66
2023/10/07 11:00:51;;;;;;;14.05;3.78;;;19.90;99.90;;;;;;5106763;27;20044;-66
2023/10/07 11:03:20;;;;;;;8.30;3.50;;;19.90;99.90;;;;;;5105558;28;20048;-66
2023/10/07 11:05:48;;;;;;;10.93;3.58;;;19.90;99.90;;;;;;5091846;28;20048;-67
2023/10/07 11:08:22;;;;;;;11.30;3.97;;;19.90;99.90;;;;;;5106178;28;20055;-67
2023/10/07 11:10:52;;;;;;;18.55;4.13;;;19.80;99.90;;;;;;5106619;27;20065;-67
2023/10/07 11:13:18;;;;;;;10.57;3.10;;;19.90;99.90;;;;;;5102567;28;20031;-66
2023/10/07 11:15:58;;;;;;;9.90;3.70;;;19.80;99.90;;;;;;5103830;28;20054;-66
2023/10/07 11:18:33;;;;;;;10.90;4.40;;;19.80;99.90;;;;;;5102560;27;20040;-66
2023/10/07 11:21:02;;;;;;;11.80;4.40;;;19.80;99.90;;;;;;5102711;27;20097;-66
2023/10/07 11:23:27;;;;;;;11.27;3.55;;;19.80;99.90;;;;;;5103419;27;20039;-67
2023/10/07 11:25:55;;;;;;;9.10;3.42;;;19.90;99.90;;;;;;5105771;27;20039;-67
2023/10/07 11:28:22;;;;;;;15.68;6.18;;;19.90;99.90;;;;;;5137452;27;20035;-66
2023/10/07 11:30:51;;;;;;;11.45;4.32;;;20.00;99.90;;;;;;5101156;27;20103;-66
2023/10/07 11:33:17;;;;;;;12.07;3.45;;;20.10;99.90;;;;;;5103948;27;20097;-66
2023/10/07 11:35:45;;;;;;;11.18;3.55;;;20.10;99.90;;;;;;5135322;27;20461;-66
2023/10/07 11:38:13;;;;;;;11.27;3.75;;;20.00;99.90;;;;;;5104203;27;20055;-66
2023/10/07 11:40:39;;;;;;;13.65;4.07;;;20.00;99.90;;;;;;5101574;27;20043;-66
2023/10/07 11:43:08;;;;;;;11.52;4.15;;;19.90;99.90;;;;;;5105457;27;20075;-66
2023/10/07 11:45:36;;;;;;;10.88;4.32;;;19.90;99.90;;;;;;5117664;27;20497;-67
2023/10/07 11:48:05;;;;;;;13.35;5.70;;;19.90;99.90;;;;;;5107162;27;20028;-67
2023/10/07 11:50:35;;;;;;;15.63;5.15;;;19.80;99.90;;;;;;5106001;27;20128;-67
2023/10/07 11:53:01;;;;;;;11.27;4.93;;;19.80;99.90;;;;;;5100090;28;20032;-66
2023/10/07 11:55:27;;;;;;;12.18;4.20;;;20.00;99.90;;;;;;5105605;27;20079;-66
2023/10/07 11:57:54;;;;;;;7.60;3.22;;;20.20;99.90;;;;;;5103309;27;20082;-67
2023/10/07 12:03:12;;;;;;;11.23;3.75;;;20.60;99.90;;;;;;5102384;28;20040;-66
2023/10/07 12:05:43;;;;;;;13.32;4.13;;;20.70;99.90;;;;;;5102418;28;20040;-66
2023/10/07 12:08:11;;;;;;;9.23;3.63;;;20.80;99.90;;;;;;5100525;28;20082;-66
2023/10/07 12:10:38;;;;;;;13.55;4.28;;;20.80;99.90;;;;;;5105089;28;20498;-66
2023/10/07 12:13:07;;;;;;;11.68;3.60;;;20.90;99.90;;;;;;5103090;27;20085;-67
2023/10/07 12:15:33;;;;;;;12.95;3.80;;;20.90;99.90;;;;;;5103953;27;20081;-66
2023/10/07 12:18:02;;;;;;;16.00;4.72;;;20.90;99.90;;;;;;5104819;28;20058;-66
2023/10/07 12:20:28;;;;;;;9.10;3.00;;;20.90;99.90;;;;;;5103298;28;20492;-66
2023/10/07 12:22:56;;;;;;;9.15;3.67;;;20.90;99.90;;;;;;5104670;27;20489;-65
2023/10/07 12:25:22;;;;;;;16.73;6.32;;;20.90;99.90;;;;;;5104688;28;20043;-66
2023/10/07 12:27:48;;;;;;;15.18;4.00;;;20.90;99.90;;;;;;5106170;28;20187;-66
2023/10/07 12:30:26;;;;;;;11.98;3.95;;;20.70;99.90;;;;;;5107033;27;20570;-66
2023/10/07 12:32:52;;;;;;;12.43;3.25;;;20.70;99.90;;;;;;5105570;27;20043;-66
2023/10/07 12:35:19;;;;;;;9.45;3.10;;;20.60;99.90;;;;;;5105111;28;20036;-66
2023/10/07 12:37:48;;;;;;;8.15;2.83;;;20.50;99.90;;;;;;5102386;27;20044;-66
2023/10/07 12:40:17;;;;;;;8.23;3.70;;;20.60;99.90;;;;;;5103267;28;20042;-66
2023/10/07 12:42:47;;;;;;;40.50;12.50;;;20.50;99.90;;;;;;5104099;27;20111;-66
2023/10/07 12:45:13;;;;;;;12.20;4.18;;;20.50;99.90;;;;;;5108794;28;20473;-66
2023/10/07 12:47:41;;;;;;;11.55;3.67;;;20.50;99.90;;;;;;5119353;27;20058;-66
2023/10/07 12:52:53;;;;;;;10.83;3.40;;;20.60;99.90;;;;;;5102978;28;20040;-66
2023/10/07 12:55:18;;;;;;;13.38;4.18;;;20.60;99.90;;;;;;5104494;27;20035;-66
2023/10/07 12:57:44;;;;;;;8.68;3.13;;;20.70;99.90;;;;;;5105541;28;20607;-66
2023/10/07 13:00:32;;;;;;;9.40;3.30;;;20.80;99.90;;;;;;5104438;27;20034;-66
2023/10/07 13:02:58;;;;;;;10.73;3.10;;;21.00;99.90;;;;;;5102051;28;20043;-66
2023/10/07 13:05:24;;;;;;;11.80;4.13;;;21.20;99.90;;;;;;5102502;28;20458;-66
2023/10/07 13:07:53;;;;;;;9.40;4.53;;;21.20;99.90;;;;;;5102931;27;20032;-66
2023/10/07 13:10:19;;;;;;;10.98;3.65;;;21.30;99.90;;;;;;5101024;28;20693;-66
2023/10/07 13:12:46;;;;;;;12.35;3.90;;;21.30;99.90;;;;;;5100168;28;20071;-66
2023/10/07 13:15:15;;;;;;;12.18;4.00;;;21.30;99.90;;;;;;5105039;27;20039;-66
2023/10/07 13:17:45;;;;;;;13.60;3.65;;;21.20;99.90;;;;;;5103940;28;20508;-66
2023/10/07 13:20:20;;;;;;;9.40;3.40;;;21.00;99.90;;;;;;5120953;27;20557;-66
2023/10/07 13:22:49;;;;;;;8.63;3.55;;;20.90;99.90;;;;;;5104546;28;20147;-66
2023/10/07 13:25:17;;;;;;;8.68;3.47;;;20.70;99.90;;;;;;5102523;27;20031;-66
2023/10/07 13:27:43;;;;;;;9.88;3.70;;;20.60;99.90;;;;;;5103765;28;20405;-66
2023/10/07 13:30:12;;;;;;;14.18;3.03;;;20.50;99.90;;;;;;5102239;28;20136;-66
2023/10/07 13:32:42;;;;;;;10.07;3.63;;;20.40;99.90;;;;;;5104309;27;20032;-66
2023/10/07 13:35:09;;;;;;;9.18;4.05;;;20.30;99.90;;;;;;5103867;27;20482;-67
2023/10/07 13:37:37;;;;;;;13.85;4.05;;;20.30;99.90;;;;;;5116348;27;20050;-66
2023/10/07 13:40:07;;;;;;;7.97;3.60;;;20.20;99.90;;;;;;5098777;28;20046;-66
2023/10/07 13:42:35;;;;;;;12.05;3.85;;;20.10;99.90;;;;;;5098421;28;20092;-66
2023/10/07 13:45:08;;;;;;;8.63;2.95;;;20.10;99.90;;;;;;5101270;28;20081;-66
2023/10/07 13:47:35;;;;;;;10.32;3.65;;;20.10;99.90;;;;;;5131462;27;20043;-66